<?xml version="1.0" encoding="UTF-8" standalone="no" ?>
<gpx xmlns="http://www.topografix.com/GPX/1/1" xmlns:xsi="http://www.w3.org/2001/XMLSchema-instance" xsi:schemaLocation="http://www.topografix.com/GPX/1/1 http://www.topografix.com/GPX/1/1/gpx.xsd" version="1.1" creator="VisuGPX - https://www.visugpx.com">
  <metadata>
    <name>Soustons</name>
    <desc><![CDATA[Cheminez sur la voie verte entre Soustons Lac et Soustons Plage, et découvrez 38 sculptures rêvées par les enfants de CM2 de l'Isle Verte et réalisées par des étudiants en BTS Chaudronnerie.]]></desc>
  </metadata>
  <trk>
    <name><![CDATA[Soustons_2]]></name>
    <extensions>
      <line xmlns="http://www.topografix.com/GPX/gpx_style/0/2">
        <color>00FF00</color>
        <width>4</width>
      </line>
    </extensions>
    <trkseg>
      <trkpt lat="43.78444" lon="-1.40382">
        <ele>3.260597</ele>
        <time>2021-08-15T20:30:33.095Z</time>
      </trkpt>
      <trkpt lat="43.78437" lon="-1.40374">
        <ele>3.248883</ele>
        <time>2021-08-15T20:30:35.382Z</time>
      </trkpt>
      <trkpt lat="43.78426" lon="-1.40336">
        <ele>3.212801</ele>
        <time>2021-08-15T20:30:42.103Z</time>
      </trkpt>
      <trkpt lat="43.78398" lon="-1.40328">
        <ele>3.178194</ele>
        <time>2021-08-15T20:30:48.997Z</time>
      </trkpt>
      <trkpt lat="43.78394" lon="-1.40327">
        <ele>3.173482</ele>
        <time>2021-08-15T20:30:49.655Z</time>
      </trkpt>
      <trkpt lat="43.78312" lon="-1.40309">
        <ele>3.071482</ele>
        <time>2021-08-15T20:31:07.062Z</time>
      </trkpt>
      <trkpt lat="43.78279" lon="-1.40302">
        <ele>2.975329</ele>
        <time>2021-08-15T20:31:14.049Z</time>
      </trkpt>
      <trkpt lat="43.78277" lon="-1.40302">
        <ele>2.969873</ele>
        <time>2021-08-15T20:31:14.477Z</time>
      </trkpt>
      <trkpt lat="43.78263" lon="-1.40299">
        <ele>2.926498</ele>
        <time>2021-08-15T20:31:17.497Z</time>
      </trkpt>
      <trkpt lat="43.78242" lon="-1.40299">
        <ele>2.857211</ele>
        <time>2021-08-15T20:31:22.005Z</time>
      </trkpt>
      <trkpt lat="43.78213" lon="-1.40301">
        <ele>2.766345</ele>
        <time>2021-08-15T20:31:28.330Z</time>
      </trkpt>
      <trkpt lat="43.78204" lon="-1.40302">
        <ele>2.739391</ele>
        <time>2021-08-15T20:31:30.127Z</time>
      </trkpt>
      <trkpt lat="43.7818" lon="-1.40306">
        <ele>2.660259</ele>
        <time>2021-08-15T20:31:35.563Z</time>
      </trkpt>
      <trkpt lat="43.78136" lon="-1.40322">
        <ele>2.517441</ele>
        <time>2021-08-15T20:31:45.016Z</time>
      </trkpt>
      <trkpt lat="43.78087" lon="-1.40341">
        <ele>2.30235</ele>
        <time>2021-08-15T20:31:55.462Z</time>
      </trkpt>
      <trkpt lat="43.78081" lon="-1.40343">
        <ele>2.274714</ele>
        <time>2021-08-15T20:31:56.739Z</time>
      </trkpt>
      <trkpt lat="43.78065" lon="-1.40393">
        <ele>2.102231</ele>
        <time>2021-08-15T20:32:04.648Z</time>
      </trkpt>
      <trkpt lat="43.78004" lon="-1.40423">
        <ele>1.81894</ele>
        <time>2021-08-15T20:32:17.863Z</time>
      </trkpt>
      <trkpt lat="43.7799" lon="-1.40429">
        <ele>1.75472</ele>
        <time>2021-08-15T20:32:20.810Z</time>
      </trkpt>
      <trkpt lat="43.77924" lon="-1.40385">
        <ele>1.939949</ele>
        <time>2021-08-15T20:32:37.365Z</time>
      </trkpt>
      <trkpt lat="43.77921" lon="-1.40367">
        <ele>1.989027</ele>
        <time>2021-08-15T20:32:40.653Z</time>
      </trkpt>
      <trkpt lat="43.77897" lon="-1.40351">
        <ele>2.090166</ele>
        <time>2021-08-15T20:32:46.833Z</time>
      </trkpt>
      <trkpt lat="43.77886" lon="-1.40338">
        <ele>2.142171</ele>
        <time>2021-08-15T20:32:50.415Z</time>
      </trkpt>
      <trkpt lat="43.77882" lon="-1.40312">
        <ele>2.213938</ele>
        <time>2021-08-15T20:32:54.712Z</time>
      </trkpt>
      <trkpt lat="43.77874" lon="-1.40263">
        <ele>2.349492</ele>
        <time>2021-08-15T20:33:03.880Z</time>
      </trkpt>
      <trkpt lat="43.77871" lon="-1.40241">
        <ele>2.494791</ele>
        <time>2021-08-15T20:33:08.351Z</time>
      </trkpt>
      <trkpt lat="43.77863" lon="-1.40225">
        <ele>2.676167</ele>
        <time>2021-08-15T20:33:11.830Z</time>
      </trkpt>
      <trkpt lat="43.77826" lon="-1.4019">
        <ele>3.28412</ele>
        <time>2021-08-15T20:33:24.251Z</time>
      </trkpt>
      <trkpt lat="43.77787" lon="-1.40153">
        <ele>3.921982</ele>
        <time>2021-08-15T20:33:37.926Z</time>
      </trkpt>
      <trkpt lat="43.77772" lon="-1.40139">
        <ele>4.15801</ele>
        <time>2021-08-15T20:33:43.062Z</time>
      </trkpt>
      <trkpt lat="43.77724" lon="-1.40106">
        <ele>4.859342</ele>
        <time>2021-08-15T20:33:58.928Z</time>
      </trkpt>
      <trkpt lat="43.77681" lon="-1.40089">
        <ele>5.279484</ele>
        <time>2021-08-15T20:34:11.222Z</time>
      </trkpt>
      <trkpt lat="43.77635" lon="-1.40097">
        <ele>5.717769</ele>
        <time>2021-08-15T20:34:23.775Z</time>
      </trkpt>
      <trkpt lat="43.77618" lon="-1.40107">
        <ele>5.88993</ele>
        <time>2021-08-15T20:34:28.823Z</time>
      </trkpt>
      <trkpt lat="43.77608" lon="-1.40112">
        <ele>5.998798</ele>
        <time>2021-08-15T20:34:31.797Z</time>
      </trkpt>
      <trkpt lat="43.77588" lon="-1.4011">
        <ele>6.182985</ele>
        <time>2021-08-15T20:34:37.109Z</time>
      </trkpt>
      <trkpt lat="43.77508" lon="-1.4005">
        <ele>6.577311</ele>
        <time>2021-08-15T20:34:59.501Z</time>
      </trkpt>
      <trkpt lat="43.77496" lon="-1.40042">
        <ele>6.596572</ele>
        <time>2021-08-15T20:35:02.991Z</time>
      </trkpt>
      <trkpt lat="43.77495" lon="-1.40041">
        <ele>6.59762</ele>
        <time>2021-08-15T20:35:03.130Z</time>
      </trkpt>
      <trkpt lat="43.77492" lon="-1.40051">
        <ele>6.607532</ele>
        <time>2021-08-15T20:35:08.135Z</time>
      </trkpt>
      <trkpt lat="43.77485" lon="-1.40072">
        <ele>6.630819</ele>
        <time>2021-08-15T20:35:19.840Z</time>
      </trkpt>
      <trkpt lat="43.77476" lon="-1.40098">
        <ele>6.659638</ele>
        <time>2021-08-15T20:35:34.371Z</time>
      </trkpt>
      <trkpt lat="43.77486" lon="-1.40106">
        <ele>6.675347</ele>
        <time>2021-08-15T20:35:38.342Z</time>
      </trkpt>
      <trkpt lat="43.77509" lon="-1.4014">
        <ele>6.722244</ele>
        <time>2021-08-15T20:35:50.815Z</time>
      </trkpt>
      <trkpt lat="43.77515" lon="-1.40166">
        <ele>6.747411</ele>
        <time>2021-08-15T20:35:57.887Z</time>
      </trkpt>
      <trkpt lat="43.77509" lon="-1.40289">
        <ele>6.795338</ele>
        <time>2021-08-15T20:36:30.931Z</time>
      </trkpt>
      <trkpt lat="43.77515" lon="-1.40368">
        <ele>6.826252</ele>
        <time>2021-08-15T20:36:52.382Z</time>
      </trkpt>
      <trkpt lat="43.77524" lon="-1.40394">
        <ele>6.83736</ele>
        <time>2021-08-15T20:37:00.190Z</time>
      </trkpt>
      <trkpt lat="43.77578" lon="-1.40454">
        <ele>7.004355</ele>
        <time>2021-08-15T20:37:26.793Z</time>
      </trkpt>
      <trkpt lat="43.77602" lon="-1.40491">
        <ele>7.102271</ele>
        <time>2021-08-15T20:37:40.425Z</time>
      </trkpt>
      <trkpt lat="43.77635" lon="-1.40558">
        <ele>7.2646</ele>
        <time>2021-08-15T20:38:02.968Z</time>
      </trkpt>
      <trkpt lat="43.77643" lon="-1.4058">
        <ele>7.314487</ele>
        <time>2021-08-15T20:38:10.099Z</time>
      </trkpt>
      <trkpt lat="43.77649" lon="-1.40597">
        <ele>7.332564</ele>
        <time>2021-08-15T20:38:15.122Z</time>
      </trkpt>
      <trkpt lat="43.77663" lon="-1.40643">
        <ele>7.27382</ele>
        <time>2021-08-15T20:38:28.584Z</time>
      </trkpt>
      <trkpt lat="43.77662" lon="-1.40669">
        <ele>7.242592</ele>
        <time>2021-08-15T20:38:35.867Z</time>
      </trkpt>
      <trkpt lat="43.7765" lon="-1.40733">
        <ele>7.163804</ele>
        <time>2021-08-15T20:38:53.361Z</time>
      </trkpt>
      <trkpt lat="43.77597" lon="-1.40796">
        <ele>7.050043</ele>
        <time>2021-08-15T20:39:17.973Z</time>
      </trkpt>
      <trkpt lat="43.77578" lon="-1.40798">
        <ele>6.931653</ele>
        <time>2021-08-15T20:39:24.939Z</time>
      </trkpt>
      <trkpt lat="43.77562" lon="-1.40785">
        <ele>6.804859</ele>
        <time>2021-08-15T20:39:31.394Z</time>
      </trkpt>
      <trkpt lat="43.77544" lon="-1.40779">
        <ele>6.676293</ele>
        <time>2021-08-15T20:39:37.844Z</time>
      </trkpt>
      <trkpt lat="43.77536" lon="-1.40783">
        <ele>6.62257</ele>
        <time>2021-08-15T20:39:40.554Z</time>
      </trkpt>
      <trkpt lat="43.77529" lon="-1.40835">
        <ele>6.35982</ele>
        <time>2021-08-15T20:39:53.646Z</time>
      </trkpt>
      <trkpt lat="43.77526" lon="-1.4086">
        <ele>6.229601</ele>
        <time>2021-08-15T20:40:00.125Z</time>
      </trkpt>
      <trkpt lat="43.77531" lon="-1.40903">
        <ele>6.011524</ele>
        <time>2021-08-15T20:40:11.043Z</time>
      </trkpt>
      <trkpt lat="43.77542" lon="-1.4093">
        <ele>5.860686</ele>
        <time>2021-08-15T20:40:18.690Z</time>
      </trkpt>
      <trkpt lat="43.77546" lon="-1.41019">
        <ele>5.241328</ele>
        <time>2021-08-15T20:40:40.983Z</time>
      </trkpt>
      <trkpt lat="43.77551" lon="-1.41036">
        <ele>5.10514</ele>
        <time>2021-08-15T20:40:45.455Z</time>
      </trkpt>
      <trkpt lat="43.77549" lon="-1.41052">
        <ele>4.991632</ele>
        <time>2021-08-15T20:40:48.581Z</time>
      </trkpt>
      <trkpt lat="43.77553" lon="-1.41059">
        <ele>4.926059</ele>
        <time>2021-08-15T20:40:50.326Z</time>
      </trkpt>
      <trkpt lat="43.77557" lon="-1.41066">
        <ele>4.855161</ele>
        <time>2021-08-15T20:40:52.092Z</time>
      </trkpt>
      <trkpt lat="43.77584" lon="-1.41123">
        <ele>4.3622</ele>
        <time>2021-08-15T20:41:04.685Z</time>
      </trkpt>
      <trkpt lat="43.77601" lon="-1.41152">
        <ele>4.095307</ele>
        <time>2021-08-15T20:41:11.862Z</time>
      </trkpt>
      <trkpt lat="43.77605" lon="-1.41159">
        <ele>4.034536</ele>
        <time>2021-08-15T20:41:13.295Z</time>
      </trkpt>
      <trkpt lat="43.77633" lon="-1.41202">
        <ele>3.635344</ele>
        <time>2021-08-15T20:41:24.242Z</time>
      </trkpt>
      <trkpt lat="43.77643" lon="-1.41207">
        <ele>3.529572</ele>
        <time>2021-08-15T20:41:27.392Z</time>
      </trkpt>
      <trkpt lat="43.77648" lon="-1.41204">
        <ele>3.473275</ele>
        <time>2021-08-15T20:41:28.871Z</time>
      </trkpt>
      <trkpt lat="43.77655" lon="-1.41215">
        <ele>3.38012</ele>
        <time>2021-08-15T20:41:31.480Z</time>
      </trkpt>
      <trkpt lat="43.77659" lon="-1.41222">
        <ele>3.314232</ele>
        <time>2021-08-15T20:41:32.729Z</time>
      </trkpt>
      <trkpt lat="43.77704" lon="-1.41222">
        <ele>2.888537</ele>
        <time>2021-08-15T20:41:41.464Z</time>
      </trkpt>
      <trkpt lat="43.7772" lon="-1.41228">
        <ele>2.727521</ele>
        <time>2021-08-15T20:41:44.736Z</time>
      </trkpt>
      <trkpt lat="43.7777" lon="-1.41278">
        <ele>2.194584</ele>
        <time>2021-08-15T20:41:56.643Z</time>
      </trkpt>
      <trkpt lat="43.77812" lon="-1.41299">
        <ele>1.920909</ele>
        <time>2021-08-15T20:42:05.405Z</time>
      </trkpt>
      <trkpt lat="43.77828" lon="-1.41301">
        <ele>1.825685</ele>
        <time>2021-08-15T20:42:08.598Z</time>
      </trkpt>
      <trkpt lat="43.77874" lon="-1.41289">
        <ele>1.538633</ele>
        <time>2021-08-15T20:42:18.296Z</time>
      </trkpt>
      <trkpt lat="43.77904" lon="-1.41275">
        <ele>1.3472</ele>
        <time>2021-08-15T20:42:24.783Z</time>
      </trkpt>
      <trkpt lat="43.7792" lon="-1.41265">
        <ele>1.241689</ele>
        <time>2021-08-15T20:42:28.323Z</time>
      </trkpt>
      <trkpt lat="43.77957" lon="-1.41242">
        <ele>1.124428</ele>
        <time>2021-08-15T20:42:36.923Z</time>
      </trkpt>
      <trkpt lat="43.77981" lon="-1.4122">
        <ele>1.062912</ele>
        <time>2021-08-15T20:42:43.026Z</time>
      </trkpt>
      <trkpt lat="43.78018" lon="-1.4115">
        <ele>0.928461</ele>
        <time>2021-08-15T20:42:56.445Z</time>
      </trkpt>
      <trkpt lat="43.78034" lon="-1.41137">
        <ele>0.889104</ele>
        <time>2021-08-15T20:43:00.376Z</time>
      </trkpt>
      <trkpt lat="43.78047" lon="-1.41131">
        <ele>0.859714</ele>
        <time>2021-08-15T20:43:03.435Z</time>
      </trkpt>
      <trkpt lat="43.78099" lon="-1.4113">
        <ele>0.875787</ele>
        <time>2021-08-15T20:43:14.911Z</time>
      </trkpt>
      <trkpt lat="43.78125" lon="-1.41106">
        <ele>0.947081</ele>
        <time>2021-08-15T20:43:21.925Z</time>
      </trkpt>
      <trkpt lat="43.78147" lon="-1.41071">
        <ele>1.022601</ele>
        <time>2021-08-15T20:43:29.493Z</time>
      </trkpt>
      <trkpt lat="43.78161" lon="-1.41061">
        <ele>1.057523</ele>
        <time>2021-08-15T20:43:32.853Z</time>
      </trkpt>
      <trkpt lat="43.78189" lon="-1.41038">
        <ele>1.131751</ele>
        <time>2021-08-15T20:43:40.509Z</time>
      </trkpt>
      <trkpt lat="43.78223" lon="-1.41031">
        <ele>1.207721</ele>
        <time>2021-08-15T20:43:48.799Z</time>
      </trkpt>
      <trkpt lat="43.78263" lon="-1.41046">
        <ele>1.641194</ele>
        <time>2021-08-15T20:43:59.834Z</time>
      </trkpt>
      <trkpt lat="43.78275" lon="-1.41058">
        <ele>1.803266</ele>
        <time>2021-08-15T20:44:03.880Z</time>
      </trkpt>
      <trkpt lat="43.78299" lon="-1.41038">
        <ele>2.116425</ele>
        <time>2021-08-15T20:44:11.283Z</time>
      </trkpt>
      <trkpt lat="43.78342" lon="-1.4101">
        <ele>2.641994</ele>
        <time>2021-08-15T20:44:24.989Z</time>
      </trkpt>
      <trkpt lat="43.78334" lon="-1.40856">
        <ele>6</ele>
      </trkpt>
      <trkpt lat="43.78274" lon="-1.40772">
        <ele>4.9</ele>
      </trkpt>
      <trkpt lat="43.78284" lon="-1.40718">
        <ele>5.4</ele>
      </trkpt>
      <trkpt lat="43.78328" lon="-1.40656">
        <ele>6</ele>
      </trkpt>
      <trkpt lat="43.78362" lon="-1.40633">
        <ele>6.4</ele>
      </trkpt>
      <trkpt lat="43.78419" lon="-1.40648">
        <ele>7.5</ele>
      </trkpt>
      <trkpt lat="43.78449" lon="-1.40582">
        <ele>6.4</ele>
      </trkpt>
      <trkpt lat="43.78468" lon="-1.40481">
        <ele>6</ele>
      </trkpt>
      <trkpt lat="43.78452" lon="-1.40411">
        <ele>5.9</ele>
      </trkpt>
      <trkpt lat="43.7844" lon="-1.40383">
        <ele>5.6</ele>
      </trkpt>
    </trkseg>
  </trk>
</gpx>